Time;durP1;ratioP1;P1;durP2;ratioP2;P2;SDS_P1;SDS_P2;PMS_P1;PMS_P2;Temp;Humidity;BMP_temperature;BMP_pressure;BME280_temperature;BME280_humidity;BME280_pressure;Samples;Min_cycle;Max_cycle;Signal;HPM_P1;HPM_P2
2023/04/25 00:01:29;;;;;;;5.20;1.90;;;;;;;-145.69;100.00;52509.75;5137241;27;20211;-84
2023/04/25 00:03:56;;;;;;;3.33;2.27;;;;;;;-145.69;100.00;52507.75;5137240;27;20208;-85
2023/04/25 00:06:26;;;;;;;3.40;1.80;;;;;;;-145.69;100.00;52531.53;5137952;27;20207;-85
2023/04/25 00:08:52;;;;;;;7.83;2.30;;;;;;;-145.69;100.00;52489.94;5141423;27;20205;-85
2023/04/25 00:11:19;;;;;;;9.63;2.33;;;;;;;-145.69;100.00;52495.88;5144064;27;20217;-86
2023/04/25 00:13:46;;;;;;;5.40;2.00;;;;;;;-145.69;100.00;52484.00;5147780;27;20201;-85
2023/04/25 00:16:13;;;;;;;3.53;2.07;;;;;;;-145.69;100.00;52503.81;5137938;27;20566;-84
2023/04/25 00:18:41;;;;;;;6.57;2.13;;;;;;;-145.69;100.00;52527.56;5138302;27;20647;-85
2023/04/25 00:21:07;;;;;;;8.23;2.37;;;;;;;-145.69;100.00;52519.63;5137722;27;20189;-85
2023/04/25 00:23:36;;;;;;;7.07;2.40;;;;;;;-145.69;100.00;52513.69;5136871;27;20248;-84
2023/04/25 00:26:03;;;;;;;8.10;2.43;;;;;;;-145.69;100.00;52491.91;5137475;27;20205;-84
2023/04/25 00:28:29;;;;;;;5.93;2.23;;;;;;;-145.69;100.00;52476.06;5137114;27;20651;-84
2023/04/25 00:30:56;;;;;;;8.40;2.30;;;;;;;-145.69;100.00;52468.16;5136530;27;20231;-84
2023/04/25 00:33:22;;;;;;;3.10;2.17;;;;;;;-145.69;100.00;52507.75;5136956;27;20204;-84
2023/04/25 00:35:50;;;;;;;6.00;2.53;;;;;;;-145.69;100.00;52507.75;5136762;27;20756;-85
2023/04/25 00:38:16;;;;;;;7.63;2.33;;;;;;;-145.69;100.00;52484.00;5137113;27;20203;-84
2023/04/25 00:40:43;;;;;;;4.97;2.70;;;;;;;-145.69;100.00;52507.75;5137041;27;20200;-84
2023/04/25 00:43:10;;;;;;;7.17;2.10;;;;;;;-145.69;100.00;52519.63;5137817;27;20204;-85
2023/04/25 00:45:39;;;;;;;5.80;2.03;;;;;;;-145.69;100.00;52503.81;5137167;27;20224;-85
2023/04/25 00:48:06;;;;;;;4.00;2.22;;;;;;;-145.69;100.00;52523.59;5136352;27;20425;-85
2023/04/25 00:50:34;;;;;;;6.93;2.33;;;;;;;-145.69;100.00;52505.78;5138886;27;20548;-86
2023/04/25 00:53:03;;;;;;;8.33;1.97;;;;;;;-145.69;100.00;52487.97;5138520;27;20233;-86
2023/04/25 00:55:31;;;;;;;5.70;1.87;;;;;;;-145.69;100.00;52523.59;5118410;27;20192;-85
2023/04/25 00:57:57;;;;;;;6.63;2.37;;;;;;;-145.69;100.00;52509.75;5138304;27;20201;-85
2023/04/25 01:00:24;;;;;;;5.33;2.13;;;;;;;-145.69;100.00;52484.00;5143261;27;20193;-86
2023/04/25 01:02:51;;;;;;;4.27;2.10;;;;;;;-145.69;100.00;52501.81;5144826;27;20200;-85
2023/04/25 01:05:18;;;;;;;3.87;2.07;;;;;;;-145.69;100.00;52511.72;5144592;27;20189;-85
2023/04/25 01:07:45;;;;;;;3.47;1.97;;;;;;;-145.69;100.00;52501.81;5139937;27;20200;-86
2023/04/25 01:10:13;;;;;;;6.30;2.20;;;;;;;-145.69;100.00;52515.69;5144749;27;20571;-85
2023/04/25 01:12:40;;;;;;;5.50;2.10;;;;;;;-145.69;100.00;52559.25;5140858;27;20224;-85
2023/04/25 01:15:07;;;;;;;4.37;2.00;;;;;;;-145.69;100.00;52511.72;5142767;27;20197;-85
2023/04/25 01:17:35;;;;;;;3.23;2.10;;;;;;;-145.69;100.00;52507.75;5145860;27;20208;-85
2023/04/25 01:20:04;;;;;;;5.37;2.30;;;;;;;-145.69;100.00;52491.91;5146996;27;20720;-86
2023/04/25 01:22:32;;;;;;;6.67;2.10;;;;;;;-145.69;100.00;52535.47;5147178;27;20694;-86
2023/04/25 01:24:59;;;;;;;7.20;2.70;;;;;;;-145.69;100.00;52499.84;5144764;27;20267;-86
2023/04/25 01:27:26;;;;;;;4.80;2.70;;;;;;;-145.69;100.00;52519.63;5140991;27;20201;-85
2023/04/25 01:29:54;;;;;;;7.30;2.33;;;;;;;-145.69;100.00;52529.53;5139788;27;20215;-84
2023/04/25 01:32:22;;;;;;;6.60;2.77;;;;;;;-145.69;100.00;52523.59;5119154;27;20227;-85
2023/04/25 01:34:49;;;;;;;8.57;2.70;;;;;;;-145.69;100.00;52503.81;5136151;27;20189;-82
2023/04/25 01:37:15;;;;;;;7.20;2.70;;;;;;;-145.69;100.00;52489.94;5117679;28;20197;-86
2023/04/25 01:39:43;;;;;;;7.63;3.23;;;;;;;-145.69;100.00;52531.53;5118424;28;20258;-87
2023/04/25 01:42:10;;;;;;;5.80;2.87;;;;;;;-145.69;100.00;52519.63;5117118;28;20194;-88
2023/04/25 01:44:36;;;;;;;7.17;3.17;;;;;;;-145.69;100.00;52539.44;5115779;28;20239;-88
2023/04/25 01:47:03;;;;;;;15.20;3.50;;;;;;;-145.69;100.00;52509.75;5117144;28;20193;-86
2023/04/25 01:49:29;;;;;;;7.87;3.10;;;;;;;-145.69;100.00;52523.59;5117212;28;20201;-86
2023/04/25 01:51:56;;;;;;;8.83;3.37;;;;;;;-145.69;100.00;52535.47;5133498;27;20220;-86
2023/04/25 01:54:22;;;;;;;9.57;3.17;;;;;;;-145.69;100.00;52551.31;5138673;27;20201;-86
2023/04/25 01:56:52;;;;;;;14.00;3.67;;;;;;;-145.69;100.00;52509.75;5137360;27;20200;-86
2023/04/25 01:59:19;;;;;;;9.30;3.70;;;;;;;-145.69;100.00;52527.56;5138300;27;20205;-85
2023/04/25 02:01:46;;;;;;;9.67;3.80;;;;;;;-145.69;100.00;52537.47;5138240;27;20618;-85
2023/04/25 02:04:12;;;;;;;6.67;3.13;;;;;;;-145.69;100.00;52541.44;5137716;27;20197;-86
2023/04/25 02:06:39;;;;;;;12.07;3.73;;;;;;;-145.69;100.00;52535.47;5136504;27;20197;-86
2023/04/25 02:09:05;;;;;;;10.80;3.30;;;;;;;-145.69;100.00;52517.66;5135927;27;20200;-86
2023/04/25 02:11:31;;;;;;;8.97;3.27;;;;;;;-145.69;100.00;52515.69;5135991;27;20239;-87
2023/04/25 02:13:59;;;;;;;7.37;3.70;;;;;;;-145.69;100.00;52523.59;5135269;27;20199;-87
2023/04/25 02:16:26;;;;;;;9.43;3.77;;;;;;;-145.69;100.00;52525.59;5135284;27;20193;-86
2023/04/25 02:18:53;;;;;;;12.00;4.27;;;;;;;-145.69;100.00;52541.44;5134972;27;20207;-87
2023/04/25 02:21:20;;;;;;;7.30;3.57;;;;;;;-145.69;100.00;52545.38;5135032;27;20197;-87
2023/04/25 02:23:48;;;;;;;7.80;3.50;;;;;;;-145.69;100.00;52531.53;5135228;27;20197;-87
2023/04/25 02:26:15;;;;;;;9.07;3.80;;;;;;;-145.69;100.00;52517.66;5135179;27;20203;-87
2023/04/25 02:28:41;;;;;;;7.77;3.53;;;;;;;-145.69;100.00;52519.63;5114583;28;20201;-87
2023/04/25 02:31:09;;;;;;;12.47;3.27;;;;;;;-145.69;100.00;52537.47;5114581;28;20275;-87
2023/04/25 02:33:35;;;;;;;5.23;2.53;;;;;;;-145.69;100.00;52507.75;5118138;27;20587;-87
2023/04/25 02:36:02;;;;;;;3.53;2.60;;;;;;;-145.69;100.00;52543.41;5135595;27;20197;-86
2023/04/25 02:38:29;;;;;;;7.20;3.10;;;;;;;-145.69;100.00;52535.47;5137256;27;20192;-86
2023/04/25 02:40:55;;;;;;;8.53;3.50;;;;;;;-145.69;100.00;52531.53;5136473;27;20203;-86
2023/04/25 02:43:21;;;;;;;5.13;2.83;;;;;;;-145.69;100.00;52565.19;5136261;27;20295;-87
2023/04/25 02:45:48;;;;;;;6.83;3.00;;;;;;;-145.69;100.00;52515.69;5136301;27;20715;-86
2023/04/25 02:48:17;;;;;;;8.50;3.03;;;;;;;-145.69;100.00;52515.69;5138842;27;20196;-86
2023/04/25 02:50:44;;;;;;;8.13;3.20;;;;;;;-145.69;100.00;52515.69;5139613;28;20227;-85
2023/04/25 02:53:10;;;;;;;7.80;3.23;;;;;;;-145.69;100.00;52541.44;5140121;28;20228;-86
2023/04/25 02:55:37;;;;;;;11.23;3.40;;;;;;;-145.69;100.00;52547.38;5140432;28;20196;-86
2023/04/25 02:58:03;;;;;;;6.27;3.20;;;;;;;-145.69;100.00;52531.53;5141182;28;20208;-86
2023/04/25 03:00:30;;;;;;;7.57;3.80;;;;;;;-145.69;100.00;52537.47;5139658;28;20261;-86
2023/04/25 03:02:57;;;;;;;7.17;4.00;;;;;;;-145.69;100.00;52563.22;5121733;28;20220;-86
2023/04/25 03:05:24;;;;;;;10.47;3.67;;;;;;;-145.69;100.00;52563.22;5141384;27;20192;-86
2023/04/25 03:07:51;;;;;;;8.03;3.30;;;;;;;-145.69;100.00;52535.47;5142695;28;20196;-85
2023/04/25 03:10:17;;;;;;;5.27;3.20;;;;;;;-145.69;100.00;52543.41;5142329;28;20208;-86
2023/04/25 03:12:44;;;;;;;7.70;3.77;;;;;;;-145.69;100.00;52515.69;5139790;27;20259;-86
2023/04/25 03:15:11;;;;;;;6.17;3.50;;;;;;;-145.69;100.00;52543.41;5140982;27;20204;-86
2023/04/25 03:17:37;;;;;;;8.33;3.30;;;;;;;-145.69;100.00;52579.06;5141190;28;20228;-86
2023/04/25 03:20:05;;;;;;;6.37;3.47;;;;;;;-145.69;100.00;52545.38;5140915;28;20199;-86
2023/04/25 03:22:32;;;;;;;7.03;3.80;;;;;;;-145.69;100.00;52547.38;5141291;28;20232;-86
2023/04/25 03:24:59;;;;;;;6.67;3.67;;;;;;;-145.69;100.00;52547.38;5140079;28;20200;-85
2023/04/25 03:27:25;;;;;;;9.30;4.30;;;;;;;-145.69;100.00;52535.47;5139909;27;20643;-85
2023/04/25 03:29:52;;;;;;;11.23;3.53;;;;;;;-145.69;100.00;52545.38;5138304;28;20201;-86
2023/04/25 03:32:18;;;;;;;9.73;3.53;;;;;;;-145.69;100.00;52545.38;5138215;27;20220;-85
2023/04/25 03:34:45;;;;;;;7.10;3.10;;;;;;;-145.69;100.00;52529.53;5137679;28;20197;-85
2023/04/25 03:37:11;;;;;;;4.77;3.13;;;;;;;-145.69;100.00;52535.47;5138313;27;20212;-85
2023/04/25 03:39:39;;;;;;;12.00;3.60;;;;;;;-145.69;100.00;52553.31;5137240;28;20208;-85
2023/04/25 03:42:05;;;;;;;6.97;3.27;;;;;;;-145.69;100.00;52577.06;5138738;28;20299;-85
2023/04/25 03:44:32;;;;;;;9.00;3.70;;;;;;;-145.69;100.00;52529.53;5136822;28;20220;-85
2023/04/25 03:46:58;;;;;;;13.73;3.93;;;;;;;-145.69;100.00;52551.31;5137401;27;20197;-85
2023/04/25 03:49:25;;;;;;;8.93;3.90;;;;;;;-145.69;100.00;52547.38;5139969;27;20193;-85
2023/04/25 03:51:52;;;;;;;4.50;3.37;;;;;;;-145.69;100.00;52592.91;5144221;27;20189;-85
2023/04/25 03:54:18;;;;;;;11.13;3.60;;;;;;;-145.69;100.00;52535.47;5144894;27;20197;-86
2023/04/25 03:56:46;;;;;;;11.40;3.93;;;;;;;-145.69;100.00;52557.28;5146113;27;20207;-85
2023/04/25 03:59:12;;;;;;;6.30;3.60;;;;;;;-145.69;100.00;52539.44;5144881;27;20197;-86
2023/04/25 04:01:39;;;;;;;12.13;4.13;;;;;;;-145.69;100.00;52543.41;5142936;27;20200;-86
2023/04/25 04:04:05;;;;;;;11.73;3.70;;;;;;;-145.69;100.00;52523.59;5141145;27;20201;-85
2023/04/25 04:06:33;;;;;;;7.60;4.20;;;;;;;-145.69;100.00;52571.13;5141327;27;20251;-86
2023/04/25 04:09:00;;;;;;;6.67;3.83;;;;;;;-145.69;100.00;52547.38;5136599;27;20205;-85
2023/04/25 04:11:26;;;;;;;15.70;3.93;;;;;;;-145.69;100.00;52537.47;5125883;28;20208;-86
2023/04/25 04:13:54;;;;;;;7.90;4.20;;;;;;;-145.69;100.00;52557.28;5125177;28;20232;-85
2023/04/25 04:16:21;;;;;;;8.23;4.20;;;;;;;-145.69;100.00;52569.16;5130597;27;20608;-85
2023/04/25 04:18:47;;;;;;;6.77;3.80;;;;;;;-145.69;100.00;52541.44;5142360;27;20648;-86
2023/04/25 04:21:14;;;;;;;9.40;3.83;;;;;;;-145.69;100.00;52557.28;5142414;27;20201;-85
2023/04/25 04:23:41;;;;;;;7.30;3.73;;;;;;;-145.69;100.00;52555.28;5143392;27;20585;-85
2023/04/25 04:26:08;;;;;;;8.10;4.87;;;;;;;-145.69;100.00;52553.31;5144093;27;20193;-86
2023/04/25 04:28:35;;;;;;;8.93;4.20;;;;;;;-145.69;100.00;52561.22;5143961;27;20212;-86
2023/04/25 04:31:03;;;;;;;13.73;5.03;;;;;;;-145.69;100.00;52565.19;5144450;27;20335;-86
2023/04/25 04:33:30;;;;;;;13.13;4.43;;;;;;;-145.69;100.00;52527.56;5135215;27;20265;-85
2023/04/25 04:35:57;;;;;;;11.20;4.57;;;;;;;-145.69;100.00;52581.03;5144987;27;20197;-85
2023/04/25 04:38:23;;;;;;;14.37;5.03;;;;;;;-145.69;100.00;52535.47;5147112;27;20205;-86
2023/04/25 04:40:50;;;;;;;14.13;5.07;;;;;;;-145.69;100.00;52573.13;5146874;27;20199;-85
2023/04/25 04:43:16;;;;;;;11.73;5.20;;;;;;;-145.69;100.00;52590.94;5147601;27;20249;-85
2023/04/25 04:45:44;;;;;;;11.57;4.87;;;;;;;-145.69;100.00;52585.00;5139391;27;20228;-85
2023/04/25 04:48:13;;;;;;;9.00;4.93;;;;;;;-145.69;100.00;52555.28;5138936;27;20227;-86
2023/04/25 04:50:40;;;;;;;8.47;4.60;;;;;;;-145.69;100.00;52557.28;5138561;27;20653;-85
2023/04/25 04:53:08;;;;;;;9.70;4.30;;;;;;;-145.69;100.00;52531.53;5139400;27;20315;-85
2023/04/25 04:55:34;;;;;;;8.63;4.53;;;;;;;-145.69;100.00;52537.47;5142462;27;20204;-85
2023/04/25 04:58:01;;;;;;;10.60;4.47;;;;;;;-145.69;100.00;52537.47;5140734;27;20200;-85
2023/04/25 05:00:29;;;;;;;10.33;4.87;;;;;;;-145.69;100.00;52539.44;5137760;27;20189;-85
2023/04/25 05:02:55;;;;;;;6.40;4.07;;;;;;;-145.69;100.00;52579.06;5139864;27;20193;-83
2023/04/25 05:05:23;;;;;;;5.67;3.67;;;;;;;-145.69;100.00;52551.31;5138929;27;20193;-85
2023/04/25 05:07:49;;;;;;;7.10;3.47;;;;;;;-145.69;100.00;52531.53;5137321;27;20197;-86
2023/04/25 05:10:16;;;;;;;10.07;4.33;;;;;;;-145.69;100.00;52501.81;5138222;27;20193;-85
2023/04/25 05:12:42;;;;;;;11.43;4.10;;;;;;;-145.69;100.00;52541.44;5137081;27;20650;-85
2023/04/25 05:15:09;;;;;;;10.73;3.80;;;;;;;-145.69;100.00;52569.16;5137997;27;20197;-86
2023/04/25 05:17:36;;;;;;;7.80;3.57;;;;;;;-145.69;100.00;52557.28;5138049;27;20559;-85
2023/04/25 05:20:03;;;;;;;9.07;3.80;;;;;;;-145.69;100.00;52541.44;5138349;27;20544;-85
2023/04/25 05:22:30;;;;;;;12.60;3.93;;;;;;;-145.69;100.00;52537.47;5137068;27;20208;-84
2023/04/25 05:24:57;;;;;;;10.30;4.40;;;;;;;-145.69;100.00;52523.59;5139006;27;20204;-84
2023/04/25 05:27:23;;;;;;;7.93;4.10;;;;;;;-145.69;100.00;52547.38;5139163;27;20203;-86
2023/04/25 05:29:50;;;;;;;7.00;3.87;;;;;;;-145.69;100.00;52533.50;5138454;27;20214;-86
2023/04/25 05:32:16;;;;;;;7.73;3.87;;;;;;;-145.69;100.00;52523.59;5138309;27;20203;-85
2023/04/25 05:34:43;;;;;;;6.73;3.37;;;;;;;-145.69;100.00;52559.25;5140395;27;20201;-86
2023/04/25 05:37:09;;;;;;;10.17;3.20;;;;;;;-145.69;100.00;52511.72;5140087;27;20681;-85
2023/04/25 05:39:37;;;;;;;8.83;3.00;;;;;;;-145.69;100.00;52531.53;5148774;27;20195;-86
2023/04/25 05:42:04;;;;;;;8.40;3.43;;;;;;;-145.69;100.00;52553.31;5142248;27;20192;-85
2023/04/25 05:44:31;;;;;;;7.97;3.37;;;;;;;-145.69;100.00;52535.47;5134792;27;20228;-84
2023/04/25 05:46:57;;;;;;;6.47;3.63;;;;;;;-145.69;100.00;52505.78;5127239;27;20205;-84
2023/04/25 05:49:24;;;;;;;5.80;3.30;;;;;;;-145.69;100.00;52511.72;5141341;27;20677;-84
2023/04/25 05:51:50;;;;;;;7.70;2.90;;;;;;;-145.69;100.00;52555.28;5143720;27;20260;-84
2023/04/25 05:54:17;;;;;;;12.63;3.10;;;;;;;-145.69;100.00;52541.44;5144097;27;20252;-85
2023/04/25 05:56:45;;;;;;;3.87;2.43;;;;;;;-145.69;100.00;52539.44;5146926;27;20193;-84
2023/04/25 05:59:11;;;;;;;8.27;2.50;;;;;;;-145.69;100.00;52527.56;5145947;27;20204;-84
2023/04/25 06:01:37;;;;;;;5.03;2.43;;;;;;;-145.69;100.00;52551.31;5142989;27;20647;-84
2023/04/25 06:04:04;;;;;;;4.90;2.53;;;;;;;-145.69;100.00;52521.63;5141050;27;20344;-84
2023/04/25 06:06:31;;;;;;;6.73;2.70;;;;;;;-145.69;100.00;52565.19;5134991;27;20205;-85
2023/04/25 06:08:58;;;;;;;6.43;2.80;;;;;;;-145.69;100.00;52521.63;5134938;27;20266;-84
2023/04/25 06:11:24;;;;;;;9.67;2.30;;;;;;;-145.69;100.00;52535.47;5132906;27;20197;-84
2023/04/25 06:13:52;;;;;;;8.97;2.93;;;;;;;-145.69;100.00;52515.69;5139653;27;20224;-85
2023/04/25 06:16:18;;;;;;;6.23;3.07;;;;;;;-145.69;100.00;52551.31;5134915;27;20548;-84
2023/04/25 06:18:45;;;;;;;4.90;2.60;;;;;;;-145.69;100.00;52505.78;5131527;27;20655;-83
2023/04/25 06:21:11;;;;;;;4.47;2.20;;;;;;;-145.69;100.00;52527.56;5134723;27;20192;-84
2023/04/25 06:23:38;;;;;;;3.03;2.20;;;;;;;-145.69;100.00;52487.97;5135483;27;20223;-82
2023/04/25 06:26:04;;;;;;;4.37;2.23;;;;;;;-145.69;100.00;52507.75;5137075;27;20201;-84
2023/04/25 06:28:31;;;;;;;7.03;2.10;;;;;;;-145.69;100.00;52493.91;5135871;27;20659;-83
2023/04/25 06:30:59;;;;;;;7.27;2.20;;;;;;;-145.69;100.00;52519.63;5135451;27;20204;-83
2023/04/25 06:33:26;;;;;;;2.40;1.70;;;;;;;-145.69;100.00;52549.34;5135057;27;20227;-83
2023/04/25 06:35:53;;;;;;;8.47;2.53;;;;;;;-145.69;100.00;52484.00;5134535;27;20203;-84
2023/04/25 06:38:20;;;;;;;3.43;2.40;;;;;;;-145.69;100.00;52484.00;5134343;27;20200;-84
2023/04/25 06:40:46;;;;;;;3.97;1.77;;;;;;;-145.69;100.00;52543.41;5134420;27;20201;-84
2023/04/25 06:43:12;;;;;;;8.60;3.07;;;;;;;-145.69;100.00;52521.63;5134190;27;20208;-83
2023/04/25 06:45:39;;;;;;;7.17;2.10;;;;;;;-145.69;100.00;52491.91;5134030;27;20228;-84
2023/04/25 06:48:07;;;;;;;5.50;2.40;;;;;;;-145.69;100.00;52527.56;5133023;27;20185;-83
2023/04/25 06:50:34;;;;;;;8.93;2.10;;;;;;;-145.69;100.00;52523.59;5134057;27;20275;-84
2023/04/25 06:53:01;;;;;;;4.13;2.17;;;;;;;-145.69;100.00;52513.69;5133947;27;20220;-84
2023/04/25 06:55:28;;;;;;;3.83;2.13;;;;;;;-145.69;100.00;52519.63;5134201;27;20220;-84
2023/04/25 06:57:54;;;;;;;5.40;2.10;;;;;;;-145.69;100.00;52537.47;5134855;27;20216;-83
2023/04/25 07:00:21;;;;;;;4.87;2.17;;;;;;;-145.69;100.00;52499.84;5134480;27;20288;-84
2023/04/25 07:02:48;;;;;;;4.40;2.10;;;;;;;-145.69;100.00;52535.47;5133653;28;20193;-84
2023/04/25 07:05:16;;;;;;;3.80;2.17;;;;;;;-145.69;100.00;52491.91;5134185;27;20197;-84
2023/04/25 07:07:42;;;;;;;4.63;2.00;;;;;;;-145.69;100.00;52476.06;5133953;27;20197;-84
2023/04/25 07:10:09;;;;;;;5.63;2.17;;;;;;;-145.69;100.00;52525.59;5134779;28;20203;-85
2023/04/25 07:12:36;;;;;;;5.37;2.07;;;;;;;-145.69;100.00;52499.84;5137554;27;20203;-85
2023/04/25 07:15:05;;;;;;;4.00;2.00;;;;;;;-145.69;100.00;52511.72;5139021;27;20231;-85
2023/04/25 07:17:33;;;;;;;6.37;2.37;;;;;;;-145.69;100.00;52484.00;5137449;28;20196;-85
2023/04/25 07:19:59;;;;;;;5.77;2.00;;;;;;;-145.69;100.00;52515.69;5136774;27;20250;-85
2023/04/25 07:22:27;;;;;;;8.10;2.13;;;;;;;-145.69;100.00;52484.00;5138531;27;20771;-86
2023/04/25 07:24:54;;;;;;;5.00;2.10;;;;;;;-145.69;100.00;52495.88;5141804;27;20284;-85
2023/04/25 07:27:20;;;;;;;12.33;4.60;;;;;;;-145.69;100.00;52507.75;5140177;27;20269;-86
2023/04/25 07:29:47;;;;;;;20.70;9.80;;;;;;;-145.69;100.00;52501.81;5139250;27;20685;-86
2023/04/25 07:32:13;;;;;;;10.10;4.17;;;;;;;-145.69;100.00;52491.91;5121051;27;20239;-86
2023/04/25 07:34:43;;;;;;;6.67;2.77;;;;;;;-145.69;100.00;52468.16;5138901;27;20228;-87
2023/04/25 07:37:09;;;;;;;6.77;2.30;;;;;;;-145.69;100.00;52491.91;5139261;27;20555;-85
2023/04/25 07:39:37;;;;;;;7.93;2.73;;;;;;;-145.69;100.00;52466.16;5139431;27;20201;-85
2023/04/25 07:42:08;;;;;;;5.10;2.60;;;;;;;-145.69;100.00;52503.81;5136735;27;20548;-88
2023/04/25 07:44:38;;;;;;;5.73;1.83;;;;;;;-145.69;100.00;52507.75;5138662;27;20236;-85
2023/04/25 07:47:05;;;;;;;8.93;2.47;;;;;;;-145.69;100.00;52521.63;5138847;27;20236;-87
2023/04/25 07:49:31;;;;;;;8.73;2.57;;;;;;;-145.69;100.00;52515.69;5138115;27;20313;-86
2023/04/25 07:51:58;;;;;;;6.20;2.73;;;;;;;-145.69;100.00;52509.75;5138249;27;20207;-87
2023/04/25 07:54:25;;;;;;;8.80;2.50;;;;;;;-145.69;100.00;52511.72;5139874;27;20468;-87
2023/04/25 07:56:52;;;;;;;6.13;2.57;;;;;;;-145.69;100.00;52499.84;5138668;27;20212;-88
2023/04/25 07:59:19;;;;;;;7.53;2.00;;;;;;;-145.69;100.00;52521.63;5138424;27;20200;-88
2023/04/25 08:01:45;;;;;;;4.17;2.20;;;;;;;-145.69;100.00;52499.84;5138701;27;20204;-88
2023/04/25 08:04:12;;;;;;;6.37;2.67;;;;;;;-145.69;100.00;52507.75;5136947;27;20216;-87
2023/04/25 08:06:38;;;;;;;4.77;2.30;;;;;;;-145.69;100.00;52519.63;5120989;27;20193;-88
2023/04/25 08:09:05;;;;;;;5.40;2.57;;;;;;;-145.69;100.00;52501.81;5117536;28;20212;-87
2023/04/25 08:11:31;;;;;;;3.83;2.47;;;;;;;-145.69;100.00;52521.63;5117655;28;20544;-88
2023/04/25 08:14:00;;;;;;;3.47;2.10;;;;;;;-145.69;100.00;52531.53;5129041;27;20235;-83
2023/04/25 08:16:26;;;;;;;7.10;2.40;;;;;;;-145.69;100.00;52519.63;5136794;27;20287;-83
2023/04/25 08:18:52;;;;;;;6.60;2.60;;;;;;;-145.69;100.00;52484.00;5135849;27;20200;-82
2023/04/25 08:21:19;;;;;;;6.30;2.50;;;;;;;-145.69;100.00;52521.63;5136759;27;20201;-80
2023/04/25 08:23:45;;;;;;;4.93;2.50;;;;;;;-145.69;100.00;52511.72;5119378;27;20670;-84
2023/04/25 08:26:12;;;;;;;7.93;2.77;;;;;;;-145.69;100.00;52545.38;5116295;28;20207;-82
2023/04/25 08:28:39;;;;;;;6.53;3.13;;;;;;;-145.69;100.00;52499.84;5118207;27;20201;-82
2023/04/25 08:31:07;;;;;;;5.40;2.40;;;;;;;-145.69;100.00;52543.41;5137008;27;20203;-82
2023/04/25 08:33:33;;;;;;;3.67;2.10;;;;;;;-145.69;100.00;52519.63;5135778;27;20212;-82
2023/04/25 08:36:00;;;;;;;3.97;1.83;;;;;;;-145.69;100.00;52555.28;5136546;27;20197;-82
2023/04/25 08:38:26;;;;;;;3.63;1.93;;;;;;;-145.69;100.00;52547.38;5135963;27;20549;-78
2023/04/25 08:40:55;;;;;;;2.77;1.80;;;;;;;-145.69;100.00;52539.44;5136102;27;20659;-81
2023/04/25 08:43:21;;;;;;;5.97;2.00;;;;;;;-145.69;100.00;52535.47;5136391;27;20551;-81
2023/04/25 08:45:51;;;;;;;3.57;1.90;;;;;;;-145.69;100.00;52531.53;5117620;27;20256;-81
2023/04/25 08:48:19;;;;;;;2.67;1.80;;;;;;;-145.69;100.00;52575.09;5135371;27;20216;-80
2023/04/25 08:50:50;;;;;;;3.93;2.13;;;;;;;-145.69;100.00;52575.09;5136229;27;20201;-80
2023/04/25 08:53:19;;;;;;;4.40;1.60;;;;;;;-145.69;100.00;52557.28;5135963;27;20269;-79
2023/04/25 08:55:47;;;;;;;2.73;1.87;;;;;;;-145.69;100.00;52555.28;5135829;27;20197;-80
2023/04/25 08:58:14;;;;;;;2.17;1.80;;;;;;;-145.69;100.00;52537.47;5136035;27;20197;-80
2023/04/25 09:00:41;;;;;;;2.33;1.90;;;;;;;-145.69;100.00;52539.44;5135924;27;20205;-79
2023/04/25 09:03:10;;;;;;;5.17;3.30;;;;;;;-145.69;100.00;52583.00;5135683;27;20281;-80
2023/04/25 09:05:38;;;;;;;2.17;1.70;;;;;;;-145.69;100.00;52529.53;5135055;27;20192;-80
2023/04/25 09:08:04;;;;;;;5.20;1.93;;;;;;;-145.69;100.00;52573.13;5135846;27;20200;-79
2023/04/25 09:10:31;;;;;;;2.97;1.90;;;;;;;-145.69;100.00;52541.44;5135806;27;20655;-80
2023/04/25 09:13:05;;;;;;;4.70;2.47;;;;;;;-145.69;100.00;52527.56;5135705;27;20215;-80
2023/04/25 09:15:32;;;;;;;5.23;2.00;;;;;;;-145.69;100.00;52575.09;5136108;27;20287;-80
2023/04/25 09:18:00;;;;;;;2.73;1.80;;;;;;;-145.69;100.00;52600.84;5135009;27;20201;-80
2023/04/25 09:20:27;;;;;;;2.53;1.70;;;;;;;-145.69;100.00;52588.97;5135569;27;20197;-80
2023/04/25 09:23:07;;;;;;;3.03;2.00;;;;;;;-145.69;100.00;52612.72;5134782;27;20548;-80
2023/04/25 09:25:38;;;;;;;5.37;2.37;;;;;;;-145.69;100.00;52590.94;5134773;27;20197;-80
2023/04/25 09:28:06;;;;;;;4.73;2.10;;;;;;;-145.69;100.00;52586.97;5135387;27;20221;-80
2023/04/25 09:30:34;;;;;;;2.63;2.20;;;;;;;-145.69;100.00;52577.06;5135193;27;20203;-79
2023/04/25 09:33:05;;;;;;;2.60;1.93;;;;;;;-145.69;100.00;52577.06;5135008;27;20197;-80
2023/04/25 09:35:36;;;;;;;5.50;2.20;;;;;;;-145.69;100.00;52569.16;5134651;27;20231;-80
2023/04/25 09:38:08;;;;;;;3.03;1.90;;;;;;;-145.69;100.00;52573.13;5133342;27;20197;-79
2023/04/25 09:40:34;;;;;;;3.67;2.13;;;;;;;-145.69;100.00;52567.16;5135029;27;20207;-79
2023/04/25 09:43:02;;;;;;;3.57;2.00;;;;;;;-145.69;100.00;52573.13;5134999;27;20743;-80
2023/04/25 09:45:31;;;;;;;2.60;1.70;;;;;;;-145.69;100.00;52588.97;5133630;27;20229;-80
2023/04/25 09:47:57;;;;;;;3.10;1.97;;;;;;;-145.69;100.00;52585.00;5116401;27;20578;-80
2023/04/25 09:50:24;;;;;;;2.07;1.53;;;;;;;-145.69;100.00;52555.28;5134615;27;20209;-82
2023/04/25 09:53:05;;;;;;;3.73;1.70;;;;;;;-145.69;100.00;52575.09;5134877;27;20197;-80
2023/04/25 09:55:33;;;;;;;2.93;2.00;;;;;;;-145.69;100.00;52531.53;5133208;27;20297;-80
2023/04/25 09:58:06;;;;;;;4.13;2.00;;;;;;;-145.69;100.00;52579.06;5134533;27;20224;-84
2023/04/25 10:00:34;;;;;;;2.53;1.80;;;;;;;-145.69;100.00;52577.06;5136353;27;20223;-87
2023/04/25 10:03:03;;;;;;;1.93;1.43;;;;;;;-145.69;100.00;52590.94;5127533;27;20251;-86
2023/04/25 10:05:33;;;;;;;2.50;1.80;;;;;;;-145.69;100.00;52561.22;5136609;27;20436;-85
2023/04/25 10:08:01;;;;;;;1.83;1.67;;;;;;;-145.69;100.00;52594.91;5137598;27;20674;-85
2023/04/25 10:10:32;;;;;;;3.47;1.83;;;;;;;-145.69;100.00;52598.84;5137069;27;20192;-85
2023/04/25 10:12:59;;;;;;;6.47;4.13;;;;;;;-145.69;100.00;52571.13;5136991;27;20284;-85
2023/04/25 10:15:26;;;;;;;9.00;4.87;;;;;;;-145.69;100.00;52585.00;5136709;27;20228;-83
2023/04/25 10:17:52;;;;;;;4.87;3.30;;;;;;;-145.69;100.00;52590.94;5135398;27;20204;-83
2023/04/25 10:20:19;;;;;;;2.37;2.17;;;;;;;-145.69;100.00;52575.09;5135520;27;20257;-81
2023/04/25 10:22:48;;;;;;;2.43;2.00;;;;;;;-145.69;100.00;52571.13;5135781;27;20547;-84
2023/04/25 10:25:18;;;;;;;1.47;1.37;;;;;;;-145.69;100.00;52585.00;5138920;27;20197;-83
2023/04/25 10:27:46;;;;;;;5.87;1.30;;;;;;;-145.69;100.00;52573.13;5138204;27;20208;-84
2023/04/25 10:30:16;;;;;;;0.90;0.90;;;;;;;-145.69;100.00;52539.44;5137470;27;20197;-85
2023/04/25 10:32:43;;;;;;;0.90;0.90;;;;;;;-145.69;100.00;52551.31;5136487;27;20193;-86
2023/04/25 10:35:15;;;;;;;1.40;1.30;;;;;;;-145.69;100.00;52590.94;5135434;27;20224;-87
2023/04/25 10:37:59;;;;;;;0.77;0.77;;;;;;;-145.69;100.00;52499.84;5136262;27;20239;-87
2023/04/25 10:40:27;;;;;;;0.60;0.60;;;;;;;-145.69;100.00;52515.69;5138176;27;20196;-87
2023/04/25 10:42:56;;;;;;;0.70;0.70;;;;;;;-145.69;100.00;52511.72;5137650;27;20200;-86
2023/04/25 10:45:23;;;;;;;0.60;0.60;;;;;;;-145.69;100.00;52539.44;5137469;27;20233;-86
2023/04/25 10:47:49;;;;;;;0.60;0.60;;;;;;;-145.69;100.00;52527.56;5136528;27;20197;-85
2023/04/25 10:50:16;;;;;;;0.70;0.70;;;;;;;-145.69;100.00;52579.06;5134450;27;20211;-83
2023/04/25 10:52:44;;;;;;;0.60;0.60;;;;;;;-145.69;100.00;52531.53;5133880;27;20197;-85
2023/04/25 10:55:10;;;;;;;0.50;0.50;;;;;;;-145.69;100.00;52517.66;5134067;27;20560;-86
2023/04/25 10:57:39;;;;;;;0.40;0.40;;;;;;;-145.69;100.00;52525.59;5134389;27;20203;-87
2023/04/25 11:00:18;;;;;;;0.40;0.40;;;;;;;-145.69;100.00;52513.69;5134851;27;20207;-87
2023/04/25 11:02:47;;;;;;;0.70;0.70;;;;;;;-145.69;100.00;52537.47;5134782;28;20280;-86
2023/04/25 11:05:22;;;;;;;0.50;0.50;;;;;;;-145.69;100.00;52531.53;5134931;27;20193;-87
2023/04/25 11:07:52;;;;;;;0.50;0.50;;;;;;;-145.69;100.00;52523.59;5136857;27;20647;-87
2023/04/25 11:10:19;;;;;;;0.40;0.40;;;;;;;-145.69;100.00;52531.53;5136115;28;20283;-85